createdAt,value
2017-12-06T00:00:31.245Z,10.98
2017-12-06T00:02:57.044Z,20.10
2017-12-06T00:05:22.855Z,21.47
2017-12-06T00:07:48.643Z,20.20
2017-12-06T00:10:14.435Z,15.57
2017-12-06T00:12:46.235Z,22.77
2017-12-06T00:18:12.012Z,14.50
2017-12-06T00:20:37.830Z,24.77
2017-12-06T00:23:03.638Z,19.00
2017-12-06T00:25:29.449Z,18.90
2017-12-06T00:27:55.267Z,22.63
2017-12-06T00:30:21.056Z,16.80
2017-12-06T00:32:47.052Z,18.67
2017-12-06T00:35:12.804Z,17.40
2017-12-06T00:37:38.597Z,13.00
2017-12-06T00:40:04.479Z,17.60
2017-12-06T00:42:30.297Z,17.57
2017-12-06T00:44:56.076Z,19.13
2017-12-06T00:47:21.887Z,11.00
2017-12-06T00:49:47.662Z,14.87
2017-12-06T00:52:13.452Z,16.53
2017-12-06T00:54:39.273Z,17.23
2017-12-06T00:57:05.064Z,21.90
2017-12-06T00:59:30.848Z,20.70
2017-12-06T01:01:56.751Z,20.90
2017-12-06T01:04:22.524Z,11.03
2017-12-06T01:06:48.332Z,24.17
2017-12-06T01:09:14.157Z,13.17
2017-12-06T01:11:39.949Z,11.67
2017-12-06T01:14:05.735Z,24.40
2017-12-06T01:16:31.548Z,16.63
2017-12-06T01:18:57.336Z,13.60
2017-12-06T01:21:23.135Z,12.87
2017-12-06T01:23:49.122Z,13.17
2017-12-06T01:26:14.905Z,11.70
2017-12-06T01:28:40.708Z,17.07
2017-12-06T01:31:06.806Z,19.50
2017-12-06T01:33:32.623Z,17.35
2017-12-06T01:35:58.420Z,20.73
2017-12-06T01:38:24.220Z,22.70
2017-12-06T01:40:50.020Z,18.63
2017-12-06T01:43:15.832Z,21.17
2017-12-06T01:45:41.635Z,10.47
2017-12-06T01:48:07.429Z,18.90
2017-12-06T01:50:33.245Z,16.23
2017-12-06T01:52:59.055Z,15.83
2017-12-06T01:55:24.874Z,14.90
2017-12-06T01:57:50.871Z,13.50
2017-12-06T02:00:16.662Z,10.80
2017-12-06T02:02:42.463Z,13.50
2017-12-06T02:05:08.279Z,16.17
2017-12-06T02:07:34.072Z,18.83
2017-12-06T02:09:59.847Z,15.53
2017-12-06T02:12:25.649Z,11.57
2017-12-06T02:14:51.438Z,14.93
2017-12-06T02:17:17.260Z,13.33
2017-12-06T02:19:43.088Z,16.07
2017-12-06T02:22:08.888Z,20.07
2017-12-06T02:24:34.728Z,15.83
2017-12-06T02:27:00.538Z,17.47
2017-12-06T02:29:26.363Z,12.87
2017-12-06T02:31:52.181Z,13.23
2017-12-06T02:34:17.995Z,11.07
2017-12-06T02:36:43.791Z,8.70
2017-12-06T02:39:09.939Z,13.60
2017-12-06T02:41:48.329Z,12.45
2017-12-06T02:44:26.523Z,15.45
2017-12-06T02:46:52.335Z,16.75
2017-12-06T02:49:18.140Z,16.57
2017-12-06T02:51:43.949Z,14.50
2017-12-06T02:54:09.765Z,11.70
2017-12-06T02:56:35.554Z,12.77
2017-12-06T02:59:01.339Z,8.23
2017-12-06T03:01:27.148Z,11.83
2017-12-06T03:03:52.975Z,13.77
2017-12-06T03:06:18.767Z,11.10
2017-12-06T03:08:44.553Z,14.13
2017-12-06T03:11:10.359Z,15.50
2017-12-06T03:13:36.155Z,17.50
2017-12-06T03:16:01.947Z,17.20
2017-12-06T03:18:27.764Z,13.90
2017-12-06T03:20:53.545Z,13.30
2017-12-06T03:23:19.341Z,12.87
2017-12-06T03:25:45.144Z,13.20
2017-12-06T03:28:10.956Z,15.10
2017-12-06T03:30:36.745Z,11.53
2017-12-06T03:33:02.926Z,12.30
2017-12-06T03:35:28.730Z,11.25
2017-12-06T03:37:54.558Z,19.77
2017-12-06T03:40:20.383Z,12.37
2017-12-06T03:42:46.160Z,11.97
2017-12-06T03:45:11.976Z,10.90
2017-12-06T03:47:37.763Z,19.73
2017-12-06T03:50:03.566Z,9.00
2017-12-06T03:52:29.672Z,15.50
2017-12-06T03:54:55.476Z,17.77
2017-12-06T03:57:21.267Z,10.07
2017-12-06T03:59:47.112Z,13.80
2017-12-06T04:02:12.912Z,14.07
2017-12-06T04:04:38.727Z,12.30
2017-12-06T04:07:04.785Z,15.30
2017-12-06T04:09:30.577Z,16.62
2017-12-06T04:11:56.359Z,9.50
2017-12-06T04:14:22.216Z,10.03
2017-12-06T04:16:48.048Z,14.07
2017-12-06T04:19:13.888Z,15.93
2017-12-06T04:21:40.005Z,16.77
2017-12-06T04:24:05.812Z,10.70
2017-12-06T04:26:31.616Z,17.97
2017-12-06T04:28:57.426Z,15.27
2017-12-06T04:31:23.224Z,16.70
2017-12-06T04:33:49.020Z,16.83
2017-12-06T04:36:14.820Z,9.17
2017-12-06T04:38:40.611Z,14.07
2017-12-06T04:41:06.430Z,12.93
2017-12-06T04:43:32.244Z,16.80
2017-12-06T04:45:58.042Z,12.67
2017-12-06T04:48:23.851Z,12.77
2017-12-06T04:50:49.653Z,14.90
2017-12-06T04:53:15.461Z,16.90
2017-12-06T04:55:41.282Z,12.80
2017-12-06T04:58:07.064Z,13.00
2017-12-06T05:00:32.856Z,14.17
2017-12-06T05:02:58.689Z,13.27
2017-12-06T05:05:24.513Z,9.57
2017-12-06T05:07:50.317Z,17.57
2017-12-06T05:10:16.367Z,17.20
2017-12-06T05:12:42.171Z,11.80
2017-12-06T05:15:07.982Z,9.20
2017-12-06T05:17:33.776Z,13.43
2017-12-06T05:19:59.552Z,11.30
2017-12-06T05:22:25.665Z,12.00
2017-12-06T05:24:51.472Z,12.23
2017-12-06T05:27:17.282Z,14.13
2017-12-06T05:29:43.113Z,13.03
2017-12-06T05:32:08.911Z,8.07
2017-12-06T05:34:34.688Z,12.30
2017-12-06T05:37:00.454Z,12.57
2017-12-06T05:39:27.112Z,8.97
2017-12-06T05:41:52.917Z,15.48
2017-12-06T05:44:18.708Z,13.20
2017-12-06T05:46:44.523Z,18.20
2017-12-06T05:49:10.304Z,13.83
2017-12-06T05:51:36.117Z,21.07
2017-12-06T05:54:01.910Z,15.27
2017-12-06T05:56:27.691Z,16.83
2017-12-06T05:58:53.559Z,16.43
2017-12-06T06:01:19.356Z,15.50
2017-12-06T06:03:45.137Z,14.27
2017-12-06T06:06:11.759Z,15.43
2017-12-06T06:08:37.552Z,11.50
2017-12-06T06:11:03.328Z,11.60
2017-12-06T06:13:29.135Z,18.33
2017-12-06T06:15:54.927Z,12.67
2017-12-06T06:18:20.738Z,11.00
2017-12-06T06:20:46.556Z,11.47
2017-12-06T06:23:12.339Z,11.83
2017-12-06T06:25:38.132Z,12.83
2017-12-06T06:28:04.292Z,6.13
2017-12-06T06:30:30.112Z,12.40
2017-12-06T06:32:55.921Z,14.50
2017-12-06T06:35:21.752Z,11.50
2017-12-06T06:37:47.532Z,6.57
2017-12-06T06:40:13.342Z,12.43
2017-12-06T06:42:39.150Z,9.90
2017-12-06T06:45:04.965Z,12.60
2017-12-06T06:47:30.757Z,8.70
2017-12-06T06:49:56.584Z,10.77
2017-12-06T06:52:22.375Z,13.17
2017-12-06T06:54:48.200Z,10.30
2017-12-06T06:57:14.301Z,10.60
2017-12-06T06:59:40.115Z,12.05
2017-12-06T07:02:05.929Z,6.30
2017-12-06T07:04:31.738Z,12.87
2017-12-06T07:06:57.556Z,11.00
2017-12-06T07:09:23.343Z,12.23
2017-12-06T07:11:49.152Z,5.27
2017-12-06T07:14:14.952Z,11.10
2017-12-06T07:16:40.737Z,12.03
2017-12-06T07:19:06.551Z,12.47
2017-12-06T07:21:32.346Z,10.60
2017-12-06T07:23:58.531Z,11.90
2017-12-06T07:26:24.315Z,12.47
2017-12-06T07:28:50.143Z,11.60
2017-12-06T07:31:15.981Z,9.67
2017-12-06T07:33:41.773Z,10.73
2017-12-06T07:36:07.577Z,9.30
2017-12-06T07:38:33.404Z,8.70
2017-12-06T07:40:59.239Z,9.80
2017-12-06T07:43:25.074Z,8.30
2017-12-06T07:45:51.157Z,8.67
2017-12-06T07:48:16.984Z,13.80
2017-12-06T07:50:42.800Z,13.53
2017-12-06T07:53:08.612Z,13.50
2017-12-06T07:55:34.404Z,5.53
2017-12-06T07:58:00.195Z,10.30
2017-12-06T08:00:27.743Z,14.17
2017-12-06T08:02:53.599Z,7.82
2017-12-06T08:05:19.375Z,9.30
2017-12-06T08:07:45.248Z,9.73
2017-12-06T08:10:11.701Z,9.33
2017-12-06T08:12:38.432Z,13.95
2017-12-06T08:15:05.351Z,6.65
2017-12-06T08:17:32.109Z,10.43
2017-12-06T08:19:59.049Z,10.63
2017-12-06T08:22:25.922Z,8.88
2017-12-06T08:24:52.482Z,8.52
2017-12-06T08:27:21.804Z,5.78
2017-12-06T08:29:48.524Z,10.75
2017-12-06T08:32:15.470Z,7.12
2017-12-06T08:34:42.315Z,7.37
2017-12-06T08:37:11.052Z,9.97
2017-12-06T08:39:38.042Z,8.05
2017-12-06T08:42:04.679Z,8.27
2017-12-06T08:44:32.134Z,9.82
2017-12-06T08:46:59.283Z,10.88
2017-12-06T08:49:26.125Z,7.45
2017-12-06T08:51:53.378Z,8.85
2017-12-06T08:54:21.601Z,12.10
2017-12-06T08:56:49.315Z,6.28
2017-12-06T08:59:16.464Z,11.20
2017-12-06T09:01:42.827Z,5.53
2017-12-06T09:04:09.333Z,9.20
2017-12-06T09:06:36.184Z,10.27
2017-12-06T09:09:02.777Z,7.03
2017-12-06T09:11:30.665Z,7.60
2017-12-06T09:13:57.993Z,7.82
2017-12-06T09:16:24.676Z,11.85
2017-12-06T09:18:50.855Z,11.07
2017-12-06T09:21:17.753Z,12.80
2017-12-06T09:23:44.259Z,10.43
2017-12-06T09:26:10.962Z,9.52
2017-12-06T09:28:37.494Z,8.60
2017-12-06T09:31:03.295Z,5.97
2017-12-06T09:36:01.890Z,6.07
2017-12-06T09:38:27.736Z,7.40
2017-12-06T09:40:53.548Z,6.87
2017-12-06T09:43:19.351Z,9.40
2017-12-06T09:45:45.168Z,7.23
2017-12-06T09:48:10.969Z,12.60
2017-12-06T09:50:36.781Z,12.40
2017-12-06T09:53:02.640Z,10.60
2017-12-06T09:55:28.511Z,9.27
2017-12-06T09:57:54.961Z,8.63
2017-12-06T10:00:20.779Z,8.53
2017-12-06T10:02:46.572Z,7.50
2017-12-06T10:05:13.562Z,13.20
2017-12-06T10:07:39.359Z,5.83
2017-12-06T10:10:05.263Z,9.07
2017-12-06T10:12:31.121Z,4.13
2017-12-06T10:14:56.927Z,7.80
2017-12-06T10:17:22.714Z,7.83
2017-12-06T10:19:48.950Z,12.97
2017-12-06T10:22:15.790Z,9.40
2017-12-06T10:24:41.610Z,4.73
2017-12-06T10:27:07.559Z,3.83
2017-12-06T10:29:34.781Z,6.53
2017-12-06T10:32:00.575Z,5.77
2017-12-06T10:34:26.726Z,5.27
2017-12-06T10:36:52.584Z,5.23
2017-12-06T10:39:18.427Z,5.23
2017-12-06T10:41:44.285Z,3.43
2017-12-06T10:44:10.095Z,5.53
2017-12-06T10:46:35.904Z,3.97
2017-12-06T10:49:01.718Z,5.10
2017-12-06T10:51:27.519Z,5.40
2017-12-06T10:53:53.333Z,3.70
2017-12-06T10:56:19.133Z,4.27
2017-12-06T10:58:44.931Z,5.50
2017-12-06T11:01:10.746Z,6.70
2017-12-06T11:03:36.545Z,7.10
2017-12-06T11:06:02.345Z,5.53
2017-12-06T11:08:28.151Z,5.50
2017-12-06T11:10:53.946Z,4.90
2017-12-06T11:13:19.743Z,6.20
2017-12-06T11:15:45.649Z,4.50
2017-12-06T11:18:11.439Z,6.30
2017-12-06T11:20:37.241Z,7.63
2017-12-06T11:23:03.091Z,7.73
2017-12-06T11:25:28.898Z,4.50
2017-12-06T11:27:54.707Z,5.00
2017-12-06T11:30:20.531Z,6.90
2017-12-06T11:32:46.349Z,5.60
2017-12-06T11:35:12.151Z,7.20
2017-12-06T11:37:37.981Z,6.30
2017-12-06T11:40:03.777Z,7.47
2017-12-06T11:42:29.951Z,7.53
2017-12-06T11:44:55.745Z,7.03
2017-12-06T11:47:21.522Z,8.90
2017-12-06T11:49:47.713Z,8.53
2017-12-06T11:52:13.514Z,6.63
2017-12-06T11:54:39.303Z,6.50
2017-12-06T11:57:05.117Z,6.43
2017-12-06T11:59:30.931Z,7.50
2017-12-06T12:01:56.745Z,5.30
2017-12-06T12:04:22.536Z,5.97
2017-12-06T12:06:48.328Z,6.13
2017-12-06T12:09:14.182Z,3.47
2017-12-06T12:11:39.928Z,10.00
2017-12-06T12:14:05.775Z,6.30
2017-12-06T12:16:31.600Z,5.47
2017-12-06T12:18:57.962Z,5.10
2017-12-06T12:21:24.162Z,4.90
2017-12-06T12:23:50.020Z,4.87
2017-12-06T12:26:15.824Z,5.33
2017-12-06T12:28:42.140Z,5.60
2017-12-06T12:31:08.924Z,6.73
2017-12-06T12:33:35.513Z,6.83
2017-12-06T12:36:02.154Z,8.37
2017-12-06T12:38:28.816Z,8.27
2017-12-06T12:40:56.055Z,8.10
2017-12-06T12:43:22.767Z,5.07
2017-12-06T12:45:57.704Z,6.40
2017-12-06T12:48:25.027Z,3.07
2017-12-06T12:50:51.849Z,5.43
2017-12-06T12:53:18.360Z,3.90
2017-12-06T12:55:45.379Z,5.10
2017-12-06T12:58:12.348Z,3.60
2017-12-06T13:00:39.219Z,4.43
2017-12-06T13:03:06.111Z,4.00
2017-12-06T13:05:32.621Z,4.43
2017-12-06T13:07:59.348Z,3.95
2017-12-06T13:10:26.331Z,4.73
2017-12-06T13:12:53.158Z,3.50
2017-12-06T13:15:19.836Z,3.58
2017-12-06T13:17:46.873Z,4.05
2017-12-06T13:20:13.787Z,3.83
2017-12-06T13:22:40.455Z,2.80
2017-12-06T13:25:07.318Z,3.47
2017-12-06T13:27:34.141Z,2.90
2017-12-06T13:30:01.154Z,4.90
2017-12-06T13:32:27.935Z,3.37
2017-12-06T13:34:54.736Z,3.87
2017-12-06T13:37:21.276Z,4.83
2017-12-06T13:39:47.086Z,4.40
2017-12-06T13:42:13.450Z,6.70
2017-12-06T13:44:39.329Z,3.40
2017-12-06T13:47:05.139Z,1.93
2017-12-06T13:49:31.405Z,2.97
2017-12-06T13:51:59.477Z,3.23
2017-12-06T13:54:25.645Z,2.90
2017-12-06T13:56:51.487Z,2.00
2017-12-06T13:59:17.420Z,2.20
2017-12-06T14:01:43.270Z,2.97
2017-12-06T14:04:09.117Z,2.00
2017-12-06T14:06:34.934Z,2.70
2017-12-06T14:09:00.935Z,1.20
2017-12-06T14:11:26.767Z,2.53
2017-12-06T14:13:52.863Z,2.60
2017-12-06T14:16:18.763Z,1.87
2017-12-06T14:18:44.936Z,2.20
2017-12-06T14:21:10.806Z,1.90
2017-12-06T14:26:09.275Z,1.40
2017-12-06T14:28:35.056Z,1.90
2017-12-06T14:31:00.860Z,2.90
2017-12-06T14:33:27.768Z,2.53
2017-12-06T14:35:53.584Z,1.97
2017-12-06T14:38:19.395Z,1.53
2017-12-06T14:40:45.223Z,2.30
2017-12-06T14:43:11.044Z,2.40
2017-12-06T14:45:36.852Z,1.90
2017-12-06T14:48:02.930Z,2.00
2017-12-06T14:50:28.740Z,2.00
2017-12-06T14:52:54.754Z,2.77
2017-12-06T14:55:20.599Z,2.10
2017-12-06T14:57:47.506Z,2.13
2017-12-06T15:00:13.312Z,3.13
2017-12-06T15:02:39.676Z,2.00
2017-12-06T15:05:05.501Z,2.47
2017-12-06T15:07:31.302Z,1.83
2017-12-06T15:09:57.136Z,2.50
2017-12-06T15:12:22.931Z,1.60
2017-12-06T15:14:49.190Z,2.17
2017-12-06T15:17:15.024Z,2.10
2017-12-06T15:19:41.182Z,1.77
2017-12-06T15:22:06.989Z,1.60
2017-12-06T15:24:32.960Z,2.80
2017-12-06T15:26:58.841Z,1.93
2017-12-06T15:29:24.642Z,1.70
2017-12-06T15:31:50.826Z,2.60
2017-12-06T15:34:16.722Z,2.03
2017-12-06T15:36:42.544Z,2.53
2017-12-06T15:39:08.588Z,1.70
2017-12-06T15:41:34.392Z,2.00
2017-12-06T15:44:00.307Z,1.53
2017-12-06T15:46:26.122Z,2.30
2017-12-06T15:48:51.932Z,1.93
2017-12-06T15:51:19.725Z,1.60
2017-12-06T15:53:45.775Z,2.47
2017-12-06T15:56:11.594Z,1.27
2017-12-06T15:58:37.408Z,2.07
2017-12-06T16:01:03.612Z,2.30
2017-12-06T16:03:29.455Z,1.50
2017-12-06T16:05:55.620Z,2.50
2017-12-06T16:08:21.584Z,3.40
2017-12-06T16:10:47.428Z,2.40
2017-12-06T16:13:13.934Z,2.17
2017-12-06T16:15:40.023Z,3.03
2017-12-06T16:18:06.363Z,1.70
2017-12-06T16:20:32.166Z,2.23
2017-12-06T16:22:58.416Z,3.00
2017-12-06T16:25:24.251Z,2.23
2017-12-06T16:27:50.080Z,2.67
2017-12-06T16:30:16.005Z,3.23
2017-12-06T16:32:41.849Z,2.90
2017-12-06T16:35:20.145Z,2.13
2017-12-06T16:37:46.054Z,3.07
2017-12-06T16:40:11.866Z,2.47
2017-12-06T16:42:37.734Z,3.00
2017-12-06T16:45:03.539Z,1.93
2017-12-06T16:47:29.416Z,2.43
2017-12-06T16:49:55.299Z,3.10
2017-12-06T16:52:21.105Z,2.50
2017-12-06T16:54:46.975Z,2.60
2017-12-06T16:57:12.795Z,3.10
2017-12-06T16:59:38.635Z,3.33
2017-12-06T17:02:04.532Z,3.23
2017-12-06T17:04:30.400Z,2.80
2017-12-06T17:06:56.259Z,2.40
2017-12-06T17:09:22.109Z,2.30
2017-12-06T17:11:48.001Z,2.07
2017-12-06T17:14:13.803Z,2.60
2017-12-06T17:16:39.608Z,2.37
2017-12-06T17:19:05.447Z,2.80
2017-12-06T17:21:31.246Z,2.20
2017-12-06T17:23:57.088Z,2.77
2017-12-06T17:26:22.995Z,3.03
2017-12-06T17:29:01.239Z,2.60
2017-12-06T17:31:39.479Z,2.77
2017-12-06T17:34:05.293Z,2.37
2017-12-06T17:36:31.107Z,2.60
2017-12-06T17:38:56.962Z,1.80
2017-12-06T17:41:22.816Z,2.70
2017-12-06T17:43:48.646Z,3.10
2017-12-06T17:46:14.560Z,3.70
2017-12-06T17:48:40.375Z,2.40
2017-12-06T17:51:06.180Z,1.97
2017-12-06T17:53:32.123Z,2.07
2017-12-06T17:55:57.959Z,3.07
2017-12-06T17:58:23.749Z,2.80
2017-12-06T18:00:49.592Z,1.87
2017-12-06T18:03:15.420Z,1.70
2017-12-06T18:05:41.227Z,2.50
2017-12-06T18:08:07.332Z,2.07
2017-12-06T18:10:33.159Z,2.70
2017-12-06T18:12:58.952Z,2.07
2017-12-06T18:15:24.758Z,2.50
2017-12-06T18:17:50.587Z,2.00
2017-12-06T18:20:16.427Z,2.60
2017-12-06T18:22:42.246Z,2.37
2017-12-06T18:25:08.060Z,3.00
2017-12-06T18:27:33.887Z,2.10
2017-12-06T18:29:59.686Z,2.20
2017-12-06T18:32:25.488Z,2.30
2017-12-06T18:34:51.396Z,2.60
2017-12-06T18:37:17.204Z,2.47
2017-12-06T18:39:43.031Z,2.60
2017-12-06T18:42:08.844Z,2.50
2017-12-06T18:44:34.668Z,2.50
2017-12-06T18:47:00.504Z,1.80
2017-12-06T18:49:26.336Z,3.43
2017-12-06T18:51:52.145Z,3.60
2017-12-06T18:54:17.958Z,3.63
2017-12-06T18:56:44.617Z,3.70
2017-12-06T18:59:10.427Z,4.30
2017-12-06T19:01:36.235Z,2.50
2017-12-06T19:04:02.091Z,4.07
2017-12-06T19:06:27.898Z,3.03
2017-12-06T19:08:53.706Z,2.20
2017-12-06T19:11:19.496Z,3.80
2017-12-06T19:13:45.292Z,3.70
2017-12-06T19:16:11.112Z,4.77
2017-12-06T19:18:36.916Z,7.07
2017-12-06T19:21:02.736Z,6.00
2017-12-06T19:23:28.556Z,4.67
2017-12-06T19:25:54.370Z,5.20
2017-12-06T19:28:20.165Z,6.40
2017-12-06T19:30:46.269Z,6.10
2017-12-06T19:33:12.076Z,5.63
2017-12-06T19:35:37.864Z,6.17
2017-12-06T19:38:03.661Z,4.47
2017-12-06T19:40:29.463Z,4.50
2017-12-06T19:42:55.449Z,3.17
2017-12-06T19:45:21.247Z,3.30
2017-12-06T19:47:47.049Z,4.40
2017-12-06T19:50:12.866Z,4.47
2017-12-06T19:52:38.667Z,5.93
2017-12-06T19:55:04.467Z,3.40
2017-12-06T19:57:30.388Z,5.00
2017-12-06T19:59:56.300Z,4.20
2017-12-06T20:02:22.126Z,4.40
2017-12-06T20:04:47.937Z,5.07
2017-12-06T20:07:13.723Z,2.00
2017-12-06T20:09:39.560Z,2.93
2017-12-06T20:12:05.386Z,2.77
2017-12-06T20:14:31.171Z,3.60
2017-12-06T20:16:56.991Z,3.80
2017-12-06T20:19:22.806Z,3.43
2017-12-06T20:21:48.635Z,2.83
2017-12-06T20:24:15.272Z,3.80
2017-12-06T20:26:41.062Z,2.67
2017-12-06T20:29:06.885Z,2.43
2017-12-06T20:31:32.717Z,3.97
2017-12-06T20:33:58.556Z,1.73
2017-12-06T20:36:24.356Z,3.23
2017-12-06T20:38:50.185Z,3.10
2017-12-06T20:41:15.977Z,2.93
2017-12-06T20:43:41.777Z,3.50
2017-12-06T20:46:07.596Z,3.83
2017-12-06T20:48:33.403Z,2.47
2017-12-06T20:50:59.191Z,2.00
2017-12-06T20:53:25.017Z,2.53
2017-12-06T20:55:50.819Z,2.77
2017-12-06T20:58:16.615Z,2.90
2017-12-06T21:00:42.680Z,3.03
2017-12-06T21:03:08.480Z,3.90
2017-12-06T21:05:34.260Z,2.77
2017-12-06T21:08:00.092Z,3.40
2017-12-06T21:10:25.915Z,1.90
2017-12-06T21:12:51.745Z,3.57
2017-12-06T21:15:17.528Z,2.50
2017-12-06T21:17:43.329Z,4.43
2017-12-06T21:20:09.170Z,2.77
2017-12-06T21:22:34.963Z,2.80
2017-12-06T21:25:00.765Z,5.00
2017-12-06T21:27:26.555Z,6.63
2017-12-06T21:29:52.371Z,4.00
2017-12-06T21:32:18.168Z,5.10
2017-12-06T21:34:43.959Z,3.70
2017-12-06T21:37:09.750Z,4.60
2017-12-06T21:39:35.544Z,5.90
2017-12-06T21:42:01.324Z,7.23
2017-12-06T21:44:27.132Z,8.47
2017-12-06T21:46:52.946Z,4.87
2017-12-06T21:49:18.739Z,7.27
2017-12-06T21:51:45.368Z,6.30
2017-12-06T21:54:11.175Z,4.50
2017-12-06T21:56:36.943Z,9.87
2017-12-06T21:59:02.865Z,8.23
2017-12-06T22:01:28.656Z,5.43
2017-12-06T22:03:54.447Z,7.50
2017-12-06T22:06:20.263Z,15.60
2017-12-06T22:08:46.373Z,11.50
2017-12-06T22:11:12.199Z,12.90
2017-12-06T22:13:38.079Z,7.97
2017-12-06T22:16:03.884Z,7.23
2017-12-06T22:18:29.680Z,10.90
2017-12-06T22:20:55.765Z,12.10
2017-12-06T22:23:21.596Z,9.30
2017-12-06T22:25:47.713Z,11.77
2017-12-06T22:28:13.532Z,9.77
2017-12-06T22:30:39.754Z,10.30
2017-12-06T22:33:05.572Z,10.00
2017-12-06T22:35:31.391Z,10.00
2017-12-06T22:37:57.173Z,9.60
2017-12-06T22:40:23.193Z,9.00
2017-12-06T22:42:49.002Z,10.53
2017-12-06T22:45:15.043Z,10.17
2017-12-06T22:47:41.190Z,9.50
2017-12-06T22:50:07.323Z,9.57
2017-12-06T22:52:33.152Z,12.07
2017-12-06T22:54:58.936Z,16.63
2017-12-06T22:57:24.757Z,13.77
2017-12-06T22:59:50.709Z,14.20
2017-12-06T23:02:16.796Z,10.70
2017-12-06T23:04:42.610Z,13.23
2017-12-06T23:07:08.422Z,10.00
2017-12-06T23:09:34.559Z,13.80
2017-12-06T23:12:00.828Z,16.43
2017-12-06T23:14:26.712Z,11.63
2017-12-06T23:16:53.863Z,9.47
2017-12-06T23:19:20.080Z,15.10
2017-12-06T23:21:45.939Z,13.77
2017-12-06T23:24:12.021Z,16.83
2017-12-06T23:26:37.924Z,11.17
2017-12-06T23:29:03.736Z,6.97
2017-12-06T23:31:29.559Z,11.20
2017-12-06T23:33:55.355Z,14.23
2017-12-06T23:36:21.192Z,9.23
2017-12-06T23:38:49.237Z,11.23
2017-12-06T23:41:16.202Z,15.97
2017-12-06T23:43:42.148Z,12.90
2017-12-06T23:46:08.007Z,12.00
2017-12-06T23:48:33.821Z,11.47
2017-12-06T23:50:59.733Z,12.87
2017-12-06T23:53:25.539Z,12.67
2017-12-06T23:55:51.330Z,12.73
2017-12-06T23:58:17.145Z,10.13
